• Join FlightAware (Why Join?)
  • Login
  • US Flag 
08:34PM EDT


 

Airport Tracker/Info


-or-


 

Live Flight TrackerFlight Track Log ✈ QXE2397 ✈ 28-Aug-2013 ✈ KMSO - KSEA

Flight Track Log - Related Links

Times and Time Zones

All times are in EDT time to prevent confusion due to time zone crossing. See the QXE2397 flight status page for this flight to view local times or setup timezone preferences in your user account.

Time Position Orientation Groundspeed Altitude Reporting Facility
EDT Latitude Longitude Course Direction KTS MPH feet Rate Location/Type
09:40PM 47.2020 -114.6508 294° West  Level FlightAware Approximate
09:41PM 47.2320 -114.7627 296° West  Level FlightAware Approximate
09:42PM 47.2675 -114.8724 282° West  Level FlightAware Approximate
09:43PM 47.2856 -114.9910 294° West  Level FlightAware Approximate
09:44PM 47.3191 -115.1024 294° West  Level FlightAware Approximate
09:45PM 47.3482 -115.2164 288° West  Level FlightAware Approximate
09:46PM 47.3740 -115.3323 288° West  Level FlightAware Approximate
09:47PM 47.3996 -115.4483 288° West  Level FlightAware Approximate
09:48PM 47.4305 -115.5616 292° West  Level FlightAware Approximate
09:49PM 47.4500 -115.6781 270° West  Level FlightAware Approximate
09:50PM 47.4570 -115.7999 275° West  Level FlightAware Approximate
09:51PM 47.4641 -115.9216 275° West  Level FlightAware Approximate
09:52PM 47.4711 -116.0434 275° West  Level FlightAware Approximate
09:53PM 47.4780 -116.1652 275° West  Level FlightAware Approximate
09:54PM 47.4848 -116.2871 275° West  Level FlightAware Approximate
09:55PM 47.4914 -116.4090 275° West  Level FlightAware Approximate
09:56PM 47.4979 -116.5309 275° West  Level FlightAware Approximate
09:57PM 47.5043 -116.6528 274° West  Level FlightAware Approximate
09:58PM 47.5105 -116.7748 274° West  Level FlightAware Approximate
09:59PM 47.5166 -116.8968 274° West  Level FlightAware Approximate
10:00PM 47.5226 -117.0188 274° West  Level FlightAware Approximate
10:01PM 47.5284 -117.1409 274° West  Level FlightAware Approximate
10:02PM 47.5342 -117.2629 274° West  Level FlightAware Approximate
10:03PM 47.5397 -117.3851 274° West  Level FlightAware Approximate
10:04PM 47.5452 -117.5072 274° West  Level FlightAware Approximate
10:05PM 47.5514 -117.6292 279° West  Level FlightAware Approximate
10:06PM 47.5649 -117.7500 279° West  Level FlightAware Approximate
10:07PM 47.5783 -117.8708 279° West  Level FlightAware Approximate
10:08PM 47.5902 -117.9920 278° West  Level FlightAware Approximate
10:09PM 47.6013 -118.1134 278° West  Level FlightAware Approximate
10:10PM 47.6122 -118.2349 278° West  Level FlightAware Approximate
10:11PM 47.6230 -118.3565 278° West  Level FlightAware Approximate
10:12PM 47.6336 -118.4780 277° West  Level FlightAware Approximate
10:13PM 47.6442 -118.5997 277° West  Level FlightAware Approximate
10:14PM 47.6546 -118.7213 277° West  Level FlightAware Approximate
10:15PM 47.6648 -118.8431 277° West  Level FlightAware Approximate
10:16PM 47.6749 -118.9639 277° West  Level FlightAware Approximate
10:17PM 47.6848 -119.0847 277° West  Level FlightAware Approximate
10:18PM 47.6946 -119.2056 277° West  Level FlightAware Approximate
10:19PM 47.7043 -119.3265 277° West  Level FlightAware Approximate
10:20PM 47.7139 -119.4475 277° West  Level FlightAware Approximate
10:21PM 47.7234 -119.5685 277° West  Level FlightAware Approximate
10:22PM 47.7329 -119.6895 277° West  Level FlightAware Approximate
10:23PM 47.7423 -119.8106 277° West  Level FlightAware Approximate
10:24PM 47.7516 -119.9317 277° West  Level FlightAware Approximate
10:25PM 47.7607 -120.0528 276° West  Level FlightAware Approximate
10:26PM 47.7789 -120.1700 296° West  Level FlightAware Approximate
10:27PM 47.7834 -120.2904 270° West  Level FlightAware Approximate
10:28PM 47.7905 -120.4117 278° West  Level FlightAware Approximate
10:29PM 47.8011 -120.5327 276° West  Level FlightAware Approximate
10:30PM 47.8092 -120.6541 276° West  Level FlightAware Approximate
10:31PM 47.8167 -120.7756 270° West  Level FlightAware Approximate
10:32PM 47.8262 -120.8968 277° West  Level FlightAware Approximate
10:33PM 47.8333 -121.0182 270° West  Level FlightAware Approximate
10:34PM 47.8445 -121.1388 281° West  Level FlightAware Approximate
10:35PM 47.8555 -121.2597 276° West  Level FlightAware Approximate
10:36PM 47.8642 -121.3812 276° West  Level FlightAware Approximate
10:37PM 47.8725 -121.5027 276° West  Level FlightAware Approximate
10:38PM 47.8806 -121.6243 276° West  Level FlightAware Approximate
10:39PM 47.8575 -121.7258 214° Southwest  Level FlightAware Approximate
10:40PM 47.7978 -121.8124 270° West  Level Estimated
10:41PM 47.7381 -121.8989 222° Southwest  Level Estimated
10:42PM 47.6750 -121.9799 221° Southwest  Level FlightAware Approximate
10:43PM 47.6161 -122.0673 214° Southwest  Level Estimated
10:44PM 47.5570 -122.1544 228° Southwest  Level Estimated
10:45PM 47.4979 -122.2414 222° Southwest  Level Estimated
10:46PM 47.4499 -122.3118 222° Southwest  Level Estimated
10:47PM 47.4499 -122.3118 222° Southwest  Level Estimated
10:48PM 47.4499 -122.3118 222° Southwest  Level Estimated
10:49PM 47.4499 -122.3118 222° Southwest  Level Estimated
10:50PM 47.4499 -122.3118 222° Southwest  Level Estimated
10:51PM 47.4499 -122.3118 222° Southwest  Level Estimated
10:52PM 47.4499 -122.3118 222° Southwest  Level Estimated
10:53PM 47.4499 -122.3118 222° Southwest  Level Estimated
10:54PM 47.4499 -122.3118 222° Southwest  Level Estimated
10:55PM 47.4499 -122.3118 222° Southwest  Level Estimated
10:56PM 47.4499 -122.3118 222° Southwest  Level Estimated
10:57PM 47.4499 -122.3118 222° Southwest  Level Estimated
10:58PM 47.4499 -122.3118 222° Southwest  Level Estimated
10:59PM 47.4499 -122.3118 222° Southwest  Level Estimated
11:00PM 47.4499 -122.3118 222° Southwest  Level Estimated
11:01PM 47.4499 -122.3118 222° Southwest  Level Estimated